Weather at Assiniboia Airport

Public forecast

Using degrees Celsius for public forecast. Weather courtesy of forecast.io.

Closest aviation weather report (METAR) to Assiniboia Airport

Report is more than 6 hours old.

Closest report is Moose Jaw Air Vice Marshal C. M. McEwen Airport, 38.8 nm (71.8 km) NNE. Retrieved 2020/11/27 23:12 UTC (2 days ago):

CYMJ 272312Z 26011KT 15SM FEW120 BKN280 01/M02 A2978 RMK AC1CI6 LAST OBS/NEXT 301000 UTC SLP110

Closest aviation forecast (TAF) to Assiniboia Airport

Forecast is more than 12 hours old.

Closest forecast is Moose Jaw Air Vice Marshal C. M. McEwen Airport, 38.8 nm (71.8 km) NNE. Retrieved 2020/11/27 18:33 UTC (2 days ago):

TAF CYMJ 271730Z 2718/2806 25020G30KT P6SM FEW080 SCT200 BECMG 2718/2720 25016G26KT BECMG 2801/2803 24012G22KT RMK NXT FCST BY 280000Z